sensor_id;sensor_type;location;lat;lon;timestamp;pressure;altitude;pressure_sealevel;temperature;humidity
6144;BME280;3103;49.492;8.474;2023-08-08T00:02:19;100612.03;;;16.55;68.14
6144;BME280;3103;49.492;8.474;2023-08-08T00:04:48;100615.31;;;16.47;68.68
6144;BME280;3103;49.492;8.474;2023-08-08T00:07:15;100606.88;;;16.54;68.38
6144;BME280;3103;49.492;8.474;2023-08-08T00:09:42;100618.00;;;16.57;68.26
6144;BME280;3103;49.492;8.474;2023-08-08T00:12:08;100615.78;;;16.85;67.64
6144;BME280;3103;49.492;8.474;2023-08-08T00:14:35;100617.41;;;16.91;67.26
6144;BME280;3103;49.492;8.474;2023-08-08T00:17:02;100606.53;;;16.86;67.43
6144;BME280;3103;49.492;8.474;2023-08-08T00:19:29;100601.66;;;16.88;67.54
6144;BME280;3103;49.492;8.474;2023-08-08T00:21:56;100611.19;;;16.80;67.75
6144;BME280;3103;49.492;8.474;2023-08-08T00:24:23;100605.78;;;16.75;67.88
6144;BME280;3103;49.492;8.474;2023-08-08T00:26:50;100609.59;;;16.64;68.96
6144;BME280;3103;49.492;8.474;2023-08-08T00:29:17;100602.53;;;16.63;69.37
6144;BME280;3103;49.492;8.474;2023-08-08T00:31:43;100603.34;;;16.69;69.28
6144;BME280;3103;49.492;8.474;2023-08-08T00:34:10;100602.28;;;16.49;70.18
6144;BME280;3103;49.492;8.474;2023-08-08T00:36:37;100596.06;;;16.39;70.46
6144;BME280;3103;49.492;8.474;2023-08-08T00:39:04;100605.53;;;16.46;69.90
6144;BME280;3103;49.492;8.474;2023-08-08T00:41:31;100602.28;;;16.49;70.26
6144;BME280;3103;49.492;8.474;2023-08-08T00:43:57;100598.00;;;16.23;71.45
6144;BME280;3103;49.492;8.474;2023-08-08T00:46:24;100593.38;;;16.28;71.32
6144;BME280;3103;49.492;8.474;2023-08-08T00:48:51;100586.03;;;16.29;71.21
6144;BME280;3103;49.492;8.474;2023-08-08T00:51:20;100590.94;;;16.27;71.28
6144;BME280;3103;49.492;8.474;2023-08-08T00:53:48;100587.94;;;16.39;71.10
6144;BME280;3103;49.492;8.474;2023-08-08T00:56:16;100585.75;;;16.30;71.31
6144;BME280;3103;49.492;8.474;2023-08-08T00:58:44;100587.97;;;16.23;71.25
6144;BME280;3103;49.492;8.474;2023-08-08T01:01:17;100584.97;;;16.15;71.67
6144;BME280;3103;49.492;8.474;2023-08-08T01:03:46;100586.59;;;16.16;71.88
6144;BME280;3103;49.492;8.474;2023-08-08T01:06:23;100580.09;;;16.17;71.69
6144;BME280;3103;49.492;8.474;2023-08-08T01:08:57;100586.06;;;16.03;72.15
6144;BME280;3103;49.492;8.474;2023-08-08T01:11:26;100578.47;;;16.00;72.47
6144;BME280;3103;49.492;8.474;2023-08-08T01:13:54;100583.38;;;15.98;72.68
6144;BME280;3103;49.492;8.474;2023-08-08T01:16:23;100585.00;;;15.84;73.43
6144;BME280;3103;49.492;8.474;2023-08-08T01:18:52;100583.91;;;15.85;73.59
6144;BME280;3103;49.492;8.474;2023-08-08T01:21:20;100584.97;;;15.69;74.12
6144;BME280;3103;49.492;8.474;2023-08-08T01:23:53;100575.50;;;15.71;74.18
6144;BME280;3103;49.492;8.474;2023-08-08T01:26:23;100576.34;;;15.77;73.82
6144;BME280;3103;49.492;8.474;2023-08-08T01:28:53;100576.88;;;15.79;73.92
6144;BME280;3103;49.492;8.474;2023-08-08T01:31:22;100583.91;;;15.65;74.67
6144;BME280;3103;49.492;8.474;2023-08-08T01:33:49;100577.41;;;15.66;74.76
6144;BME280;3103;49.492;8.474;2023-08-08T01:36:25;100575.78;;;15.85;74.01
6144;BME280;3103;49.492;8.474;2023-08-08T01:38:59;100573.03;;;15.60;74.93
6144;BME280;3103;49.492;8.474;2023-08-08T01:41:32;100571.72;;;15.78;74.67
6144;BME280;3103;49.492;8.474;2023-08-08T01:44:00;100571.44;;;15.69;74.98
6144;BME280;3103;49.492;8.474;2023-08-08T01:46:28;100578.22;;;15.66;74.56
6144;BME280;3103;49.492;8.474;2023-08-08T01:48:57;100574.97;;;15.69;74.95
6144;BME280;3103;49.492;8.474;2023-08-08T01:51:26;100586.88;;;15.63;75.47
6144;BME280;3103;49.492;8.474;2023-08-08T01:53:52;100584.44;;;15.67;74.89
6144;BME280;3103;49.492;8.474;2023-08-08T01:56:19;100586.34;;;15.77;75.18
6144;BME280;3103;49.492;8.474;2023-08-08T01:58:46;100589.03;;;15.71;74.87
6144;BME280;3103;49.492;8.474;2023-08-08T02:01:13;100579.84;;;15.67;75.13
6144;BME280;3103;49.492;8.474;2023-08-08T02:03:40;100581.44;;;15.73;74.81
6144;BME280;3103;49.492;8.474;2023-08-08T02:06:07;100577.66;;;15.69;74.91
6144;BME280;3103;49.492;8.474;2023-08-08T02:08:34;100576.31;;;15.72;74.79
6144;BME280;3103;49.492;8.474;2023-08-08T02:11:01;100582.81;;;15.66;75.00
6144;BME280;3103;49.492;8.474;2023-08-08T02:13:28;100574.38;;;15.57;75.64
6144;BME280;3103;49.492;8.474;2023-08-08T02:15:56;100574.03;;;15.33;76.90
6144;BME280;3103;49.492;8.474;2023-08-08T02:18:23;100565.72;;;15.55;75.92
6144;BME280;3103;49.492;8.474;2023-08-08T02:20:50;100565.72;;;15.50;76.42
6144;BME280;3103;49.492;8.474;2023-08-08T02:23:16;100567.34;;;15.51;76.38
6144;BME280;3103;49.492;8.474;2023-08-08T02:25:43;100561.09;;;15.56;76.18
6144;BME280;3103;49.492;8.474;2023-08-08T02:28:10;100564.31;;;15.48;76.40
6144;BME280;3103;49.492;8.474;2023-08-08T02:30:38;100571.41;;;15.49;76.52
6144;BME280;3103;49.492;8.474;2023-08-08T02:33:05;100570.56;;;15.58;75.99
6144;BME280;3103;49.492;8.474;2023-08-08T02:35:33;100566.84;;;15.64;75.80
6144;BME280;3103;49.492;8.474;2023-08-08T02:38:00;100561.41;;;15.59;75.64
6144;BME280;3103;49.492;8.474;2023-08-08T02:40:27;100568.41;;;15.55;76.05
6144;BME280;3103;49.492;8.474;2023-08-08T02:42:54;100567.84;;;15.48;76.87
6144;BME280;3103;49.492;8.474;2023-08-08T02:45:21;100563.84;;;15.76;75.63
6144;BME280;3103;49.492;8.474;2023-08-08T02:47:47;100563.53;;;15.57;75.34
6144;BME280;3103;49.492;8.474;2023-08-08T02:50:15;100572.19;;;15.39;76.58
6144;BME280;3103;49.492;8.474;2023-08-08T02:52:42;100571.84;;;15.15;77.78
6144;BME280;3103;49.492;8.474;2023-08-08T02:55:10;100572.13;;;15.13;77.90
6144;BME280;3103;49.492;8.474;2023-08-08T02:57:39;100575.13;;;15.32;77.49
6144;BME280;3103;49.492;8.474;2023-08-08T03:00:06;100565.72;;;15.50;76.78
6144;BME280;3103;49.492;8.474;2023-08-08T03:02:39;100569.81;;;15.68;76.03
6144;BME280;3103;49.492;8.474;2023-08-08T03:05:07;100565.72;;;15.55;76.07
6144;BME280;3103;49.492;8.474;2023-08-08T03:07:34;100566.25;;;15.52;75.96
6144;BME280;3103;49.492;8.474;2023-08-08T03:10:01;100562.69;;;15.31;76.90
6144;BME280;3103;49.492;8.474;2023-08-08T03:12:30;100553.75;;;15.31;77.26
6144;BME280;3103;49.492;8.474;2023-08-08T03:14:57;100554.31;;;15.43;77.13
6144;BME280;3103;49.492;8.474;2023-08-08T03:17:24;100553.16;;;15.13;78.44
6144;BME280;3103;49.492;8.474;2023-08-08T03:19:51;100559.97;;;15.21;77.91
6144;BME280;3103;49.492;8.474;2023-08-08T03:22:18;100551.28;;;15.14;78.12
6144;BME280;3103;49.492;8.474;2023-08-08T03:24:46;100551.53;;;15.12;78.61
6144;BME280;3103;49.492;8.474;2023-08-08T03:27:12;100557.75;;;15.08;78.50
6144;BME280;3103;49.492;8.474;2023-08-08T03:29:39;100559.88;;;15.01;78.87
6144;BME280;3103;49.492;8.474;2023-08-08T03:32:06;100557.78;;;15.13;78.57
6144;BME280;3103;49.492;8.474;2023-08-08T03:34:34;100549.66;;;15.13;78.32
6144;BME280;3103;49.492;8.474;2023-08-08T03:37:03;100559.69;;;15.23;78.02
6144;BME280;3103;49.492;8.474;2023-08-08T03:39:30;100560.22;;;15.20;78.08
6144;BME280;3103;49.492;8.474;2023-08-08T03:41:57;100562.53;;;14.85;79.98
6144;BME280;3103;49.492;8.474;2023-08-08T03:44:24;100555.28;;;15.01;79.05
6144;BME280;3103;49.492;8.474;2023-08-08T03:46:52;100550.69;;;14.97;79.32
6144;BME280;3103;49.492;8.474;2023-08-08T03:49:28;100551.78;;;15.01;78.97
6144;BME280;3103;49.492;8.474;2023-08-08T03:51:54;100558.00;;;15.01;78.97
6144;BME280;3103;49.492;8.474;2023-08-08T03:54:21;100563.13;;;15.03;79.25
6144;BME280;3103;49.492;8.474;2023-08-08T03:56:48;100561.06;;;15.25;78.10
6144;BME280;3103;49.492;8.474;2023-08-08T03:59:15;100561.06;;;15.25;77.64
6144;BME280;3103;49.492;8.474;2023-08-08T04:01:42;100559.28;;;14.83;79.62
6144;BME280;3103;49.492;8.474;2023-08-08T04:04:08;100556.31;;;14.85;79.75
6144;BME280;3103;49.492;8.474;2023-08-08T04:06:35;100557.09;;;14.75;80.28
6144;BME280;3103;49.492;8.474;2023-08-08T04:09:02;100563.41;;;14.96;79.96
6144;BME280;3103;49.492;8.474;2023-08-08T04:11:29;100560.44;;;14.98;79.91
6144;BME280;3103;49.492;8.474;2023-08-08T04:13:56;100568.81;;;14.96;79.81
6144;BME280;3103;49.492;8.474;2023-08-08T04:16:22;100568.75;;;14.86;80.28
6144;BME280;3103;49.492;8.474;2023-08-08T04:18:52;100559.03;;;14.85;80.10
6144;BME280;3103;49.492;8.474;2023-08-08T04:21:19;100567.97;;;14.91;79.79
6144;BME280;3103;49.492;8.474;2023-08-08T04:23:46;100564.75;;;14.94;80.15
6144;BME280;3103;49.492;8.474;2023-08-08T04:26:13;100554.69;;;14.89;79.64
6144;BME280;3103;49.492;8.474;2023-08-08T04:28:41;100566.94;;;15.02;79.63
6144;BME280;3103;49.492;8.474;2023-08-08T04:31:08;100560.38;;;14.88;79.92
6144;BME280;3103;49.492;8.474;2023-08-08T04:33:34;100569.09;;;15.00;79.53
6144;BME280;3103;49.492;8.474;2023-08-08T04:36:01;100573.16;;;15.02;79.38
6144;BME280;3103;49.492;8.474;2023-08-08T04:38:28;100568.56;;;15.03;79.50
6144;BME280;3103;49.492;8.474;2023-08-08T04:40:55;100572.22;;;14.76;80.31
6144;BME280;3103;49.492;8.474;2023-08-08T04:43:22;100575.53;;;14.83;80.28
6144;BME280;3103;49.492;8.474;2023-08-08T04:45:49;100569.50;;;14.71;80.95
6144;BME280;3103;49.492;8.474;2023-08-08T04:48:16;100568.69;;;14.71;81.14
6144;BME280;3103;49.492;8.474;2023-08-08T04:50:42;100570.56;;;14.65;81.33
6144;BME280;3103;49.492;8.474;2023-08-08T04:53:09;100578.72;;;14.75;80.95
6144;BME280;3103;49.492;8.474;2023-08-08T04:55:36;100570.59;;;14.75;80.89
6144;BME280;3103;49.492;8.474;2023-08-08T04:58:03;100574.84;;;14.56;81.57
6144;BME280;3103;49.492;8.474;2023-08-08T05:00:30;100574.97;;;14.81;81.11
6144;BME280;3103;49.492;8.474;2023-08-08T05:02:57;100567.94;;;14.80;80.95
6144;BME280;3103;49.492;8.474;2023-08-08T05:05:24;100566.91;;;14.97;79.99
6144;BME280;3103;49.492;8.474;2023-08-08T05:07:51;100567.47;;;14.99;80.05
6144;BME280;3103;49.492;8.474;2023-08-08T05:10:18;100571.84;;;15.10;79.71
6144;BME280;3103;49.492;8.474;2023-08-08T05:12:45;100572.41;;;15.22;78.99
6144;BME280;3103;49.492;8.474;2023-08-08T05:15:11;100575.63;;;15.19;78.97
6144;BME280;3103;49.492;8.474;2023-08-08T05:17:38;100571.34;;;15.23;78.79
6144;BME280;3103;49.492;8.474;2023-08-08T05:20:05;100571.91;;;15.35;78.34
6144;BME280;3103;49.492;8.474;2023-08-08T05:22:33;100564.63;;;15.56;77.47
6144;BME280;3103;49.492;8.474;2023-08-08T05:25:00;100563.31;;;15.64;76.56
6144;BME280;3103;49.492;8.474;2023-08-08T05:27:28;100564.66;;;15.71;75.90
6144;BME280;3103;49.492;8.474;2023-08-08T05:29:55;100566.28;;;15.67;76.30
6144;BME280;3103;49.492;8.474;2023-08-08T05:32:22;100564.94;;;15.80;75.75
6144;BME280;3103;49.492;8.474;2023-08-08T05:34:50;100572.81;;;15.77;75.82
6144;BME280;3103;49.492;8.474;2023-08-08T05:37:17;100563.53;;;15.52;77.10
6144;BME280;3103;49.492;8.474;2023-08-08T05:39:44;100559.53;;;15.65;76.76
6144;BME280;3103;49.492;8.474;2023-08-08T05:42:11;100561.69;;;15.68;76.32
6144;BME280;3103;49.492;8.474;2023-08-08T05:44:38;100565.47;;;16.02;74.44
6144;BME280;3103;49.492;8.474;2023-08-08T05:47:05;100573.06;;;16.06;73.68
6144;BME280;3103;49.492;8.474;2023-08-08T05:49:32;100562.22;;;16.21;73.05
6144;BME280;3103;49.492;8.474;2023-08-08T05:51:59;100564.63;;;16.27;72.93
6144;BME280;3103;49.492;8.474;2023-08-08T05:54:26;100571.13;;;16.26;72.53
6144;BME280;3103;49.492;8.474;2023-08-08T05:56:54;100578.44;;;16.41;71.91
6144;BME280;3103;49.492;8.474;2023-08-08T05:59:21;100578.16;;;16.43;71.35
6144;BME280;3103;49.492;8.474;2023-08-08T06:01:48;100570.03;;;16.48;71.07
6144;BME280;3103;49.492;8.474;2023-08-08T06:04:15;100572.16;;;16.56;71.00
6144;BME280;3103;49.492;8.474;2023-08-08T06:06:42;100573.22;;;16.60;70.37
6144;BME280;3103;49.492;8.474;2023-08-08T06:09:08;100575.69;;;16.56;70.51
6144;BME280;3103;49.492;8.474;2023-08-08T06:11:35;100575.13;;;16.70;70.07
6144;BME280;3103;49.492;8.474;2023-08-08T06:14:02;100577.25;;;16.83;69.53
6144;BME280;3103;49.492;8.474;2023-08-08T06:16:29;100573.97;;;16.91;68.78
6144;BME280;3103;49.492;8.474;2023-08-08T06:18:56;100579.91;;;17.03;68.79
6144;BME280;3103;49.492;8.474;2023-08-08T06:21:23;100574.72;;;17.07;68.17
6144;BME280;3103;49.492;8.474;2023-08-08T06:23:50;100568.69;;;17.20;67.72
6144;BME280;3103;49.492;8.474;2023-08-08T06:26:18;100574.91;;;17.20;66.99
6144;BME280;3103;49.492;8.474;2023-08-08T06:28:47;100571.59;;;17.29;66.91
6144;BME280;3103;49.492;8.474;2023-08-08T06:31:14;100574.31;;;17.29;66.21
6144;BME280;3103;49.492;8.474;2023-08-08T06:33:41;100571.97;;;17.12;66.66
6144;BME280;3103;49.492;8.474;2023-08-08T06:36:08;100577.03;;;17.29;66.00
6144;BME280;3103;49.492;8.474;2023-08-08T06:38:35;100579.22;;;17.32;66.20
6144;BME280;3103;49.492;8.474;2023-08-08T06:41:05;100579.53;;;17.59;64.86
6144;BME280;3103;49.492;8.474;2023-08-08T06:43:32;100576.22;;;17.77;64.77
6144;BME280;3103;49.492;8.474;2023-08-08T06:45:58;100577.19;;;17.87;64.15
6144;BME280;3103;49.492;8.474;2023-08-08T06:48:25;100576.69;;;17.85;64.31
6144;BME280;3103;49.492;8.474;2023-08-08T06:50:53;100578.97;;;18.01;63.42
6144;BME280;3103;49.492;8.474;2023-08-08T06:53:20;100572.66;;;18.11;63.08
6144;BME280;3103;49.492;8.474;2023-08-08T06:55:46;100579.63;;;18.22;63.27
6144;BME280;3103;49.492;8.474;2023-08-08T06:58:13;100569.69;;;18.36;62.48
6144;BME280;3103;49.492;8.474;2023-08-08T07:00:40;100569.41;;;18.38;61.26
6144;BME280;3103;49.492;8.474;2023-08-08T07:03:07;100562.91;;;18.34;60.56
6144;BME280;3103;49.492;8.474;2023-08-08T07:05:34;100566.06;;;18.46;60.10
6144;BME280;3103;49.492;8.474;2023-08-08T07:08:00;100566.88;;;18.47;59.40
6144;BME280;3103;49.492;8.474;2023-08-08T07:10:27;100564.00;;;18.57;59.12
6144;BME280;3103;49.492;8.474;2023-08-08T07:12:54;100573.25;;;18.61;58.62
6144;BME280;3103;49.492;8.474;2023-08-08T07:15:21;100571.00;;;18.68;58.13
6144;BME280;3103;49.492;8.474;2023-08-08T07:17:48;100566.19;;;18.60;57.97
6144;BME280;3103;49.492;8.474;2023-08-08T07:20:15;100570.06;;;18.78;57.10
6144;BME280;3103;49.492;8.474;2023-08-08T07:22:42;100563.53;;;18.79;56.34
6144;BME280;3103;49.492;8.474;2023-08-08T07:25:09;100565.03;;;18.90;55.98
6144;BME280;3103;49.492;8.474;2023-08-08T07:27:37;100565.72;;;19.01;55.44
6144;BME280;3103;49.492;8.474;2023-08-08T07:30:04;100563.56;;;18.97;54.61
6144;BME280;3103;49.492;8.474;2023-08-08T07:32:33;100565.75;;;18.77;54.09
6144;BME280;3103;49.492;8.474;2023-08-08T07:35:00;100554.16;;;18.90;53.58
6144;BME280;3103;49.492;8.474;2023-08-08T07:37:29;100556.38;;;19.07;53.44
6144;BME280;3103;49.492;8.474;2023-08-08T07:39:56;100562.63;;;19.07;51.84
6144;BME280;3103;49.492;8.474;2023-08-08T07:42:23;100553.28;;;19.13;51.50
6144;BME280;3103;49.492;8.474;2023-08-08T07:44:50;100556.31;;;19.31;50.57
6144;BME280;3103;49.492;8.474;2023-08-08T07:47:16;100558.72;;;19.51;50.12
6144;BME280;3103;49.492;8.474;2023-08-08T07:49:43;100559.53;;;19.51;49.77
6144;BME280;3103;49.492;8.474;2023-08-08T07:52:10;100562.88;;;19.48;50.33
6144;BME280;3103;49.492;8.474;2023-08-08T07:54:37;100557.56;;;19.38;50.21
6144;BME280;3103;49.492;8.474;2023-08-08T07:57:04;100558.97;;;19.36;50.32
6144;BME280;3103;49.492;8.474;2023-08-08T07:59:30;100550.13;;;19.06;50.83
6144;BME280;3103;49.492;8.474;2023-08-08T08:01:57;100544.91;;;19.47;50.34
6144;BME280;3103;49.492;8.474;2023-08-08T08:04:24;100545.63;;;19.53;49.94
6144;BME280;3103;49.492;8.474;2023-08-08T08:06:51;100550.78;;;19.54;50.12
6144;BME280;3103;49.492;8.474;2023-08-08T08:09:18;100550.13;;;19.44;50.89
6144;BME280;3103;49.492;8.474;2023-08-08T08:11:45;100552.56;;;19.45;51.40
6144;BME280;3103;49.492;8.474;2023-08-08T08:14:12;100543.16;;;19.56;51.01
6144;BME280;3103;49.492;8.474;2023-08-08T08:16:39;100558.47;;;19.71;51.05
6144;BME280;3103;49.492;8.474;2023-08-08T08:19:06;100551.94;;;19.86;50.73
6144;BME280;3103;49.492;8.474;2023-08-08T08:21:33;100553.81;;;19.72;51.12
6144;BME280;3103;49.492;8.474;2023-08-08T08:24:00;100552.91;;;19.39;52.02
6144;BME280;3103;49.492;8.474;2023-08-08T08:26:27;100554.19;;;19.46;52.51
6144;BME280;3103;49.492;8.474;2023-08-08T08:28:55;100550.50;;;19.56;52.57
6144;BME280;3103;49.492;8.474;2023-08-08T08:31:22;100547.63;;;19.66;51.81
6144;BME280;3103;49.492;8.474;2023-08-08T08:33:50;100549.88;;;19.78;51.60
6144;BME280;3103;49.492;8.474;2023-08-08T08:36:17;100545.88;;;19.89;51.61
6144;BME280;3103;49.492;8.474;2023-08-08T08:38:44;100543.53;;;19.82;51.44
6144;BME280;3103;49.492;8.474;2023-08-08T08:41:11;100539.53;;;19.94;50.72
6144;BME280;3103;49.492;8.474;2023-08-08T08:43:40;100541.97;;;19.95;50.03
6144;BME280;3103;49.492;8.474;2023-08-08T08:46:08;100547.06;;;20.15;49.95
6144;BME280;3103;49.492;8.474;2023-08-08T08:48:37;100541.31;;;20.17;49.12
6144;BME280;3103;49.492;8.474;2023-08-08T08:51:04;100541.53;;;19.88;48.89
6144;BME280;3103;49.492;8.474;2023-08-08T08:53:31;100540.28;;;19.99;48.48
6144;BME280;3103;49.492;8.474;2023-08-08T08:55:57;100534.63;;;20.09;48.68
6144;BME280;3103;49.492;8.474;2023-08-08T08:58:25;100532.09;;;20.27;48.85
6144;BME280;3103;49.492;8.474;2023-08-08T09:00:52;100539.91;;;20.20;44.88
6144;BME280;3103;49.492;8.474;2023-08-08T09:03:19;100537.28;;;20.14;44.43
6144;BME280;3103;49.492;8.474;2023-08-08T09:05:47;100525.00;;;20.12;43.19
6144;BME280;3103;49.492;8.474;2023-08-08T09:08:15;100530.00;;;20.24;43.73
6144;BME280;3103;49.492;8.474;2023-08-08T09:10:42;100526.78;;;20.35;42.65
6144;BME280;3103;49.492;8.474;2023-08-08T09:13:08;100527.56;;;20.36;42.28
6144;BME280;3103;49.492;8.474;2023-08-08T09:15:35;100522.97;;;20.50;40.55
6144;BME280;3103;49.492;8.474;2023-08-08T09:18:02;100525.38;;;20.52;40.43
6144;BME280;3103;49.492;8.474;2023-08-08T09:20:29;100526.00;;;20.49;40.17
6144;BME280;3103;49.492;8.474;2023-08-08T09:22:56;100529.97;;;20.56;41.00
6144;BME280;3103;49.492;8.474;2023-08-08T09:25:23;100520.16;;;20.55;40.97
6144;BME280;3103;49.492;8.474;2023-08-08T09:27:51;100515.88;;;20.49;40.13
6144;BME280;3103;49.492;8.474;2023-08-08T09:30:20;100519.75;;;20.48;40.05
6144;BME280;3103;49.492;8.474;2023-08-08T09:32:47;100520.25;;;20.50;39.70
6144;BME280;3103;49.492;8.474;2023-08-08T09:35:14;100520.16;;;20.55;39.34
6144;BME280;3103;49.492;8.474;2023-08-08T09:37:41;100503.47;;;20.57;38.88
6144;BME280;3103;49.492;8.474;2023-08-08T09:40:08;100502.53;;;20.75;39.18
6144;BME280;3103;49.492;8.474;2023-08-08T09:42:40;100504.97;;;20.77;39.45
6144;BME280;3103;49.492;8.474;2023-08-08T09:45:08;100507.78;;;20.85;39.98
6144;BME280;3103;49.492;8.474;2023-08-08T09:47:37;100505.06;;;20.71;40.61
6144;BME280;3103;49.492;8.474;2023-08-08T09:50:04;100517.69;;;20.67;40.14
6144;BME280;3103;49.492;8.474;2023-08-08T09:52:34;100507.41;;;20.64;39.19
6144;BME280;3103;49.492;8.474;2023-08-08T09:55:02;100510.03;;;20.69;39.23
6144;BME280;3103;49.492;8.474;2023-08-08T09:57:32;100509.94;;;20.61;39.93
6144;BME280;3103;49.492;8.474;2023-08-08T09:59:59;100505.28;;;20.61;39.55
6144;BME280;3103;49.492;8.474;2023-08-08T10:02:31;100502.41;;;20.80;39.92
6144;BME280;3103;49.492;8.474;2023-08-08T10:04:59;100499.47;;;20.90;40.24
6144;BME280;3103;49.492;8.474;2023-08-08T10:07:27;100494.19;;;20.94;40.66
6144;BME280;3103;49.492;8.474;2023-08-08T10:09:54;100500.69;;;20.98;40.63
6144;BME280;3103;49.492;8.474;2023-08-08T10:12:22;100490.25;;;21.00;40.40
6144;BME280;3103;49.492;8.474;2023-08-08T10:14:50;100497.94;;;20.98;40.53
6144;BME280;3103;49.492;8.474;2023-08-08T10:17:18;100501.25;;;21.09;41.38
6144;BME280;3103;49.492;8.474;2023-08-08T10:19:54;100507.41;;;21.14;40.41
6144;BME280;3103;49.492;8.474;2023-08-08T10:22:23;100505.84;;;21.22;40.45
6144;BME280;3103;49.492;8.474;2023-08-08T10:24:54;100492.94;;;21.14;40.67
6144;BME280;3103;49.492;8.474;2023-08-08T10:27:31;100489.63;;;21.03;40.95
6144;BME280;3103;49.492;8.474;2023-08-08T10:30:08;100488.06;;;21.11;41.31
6144;BME280;3103;49.492;8.474;2023-08-08T10:32:44;100489.91;;;21.15;40.73
6144;BME280;3103;49.492;8.474;2023-08-08T10:35:13;100493.56;;;20.97;41.02
6144;BME280;3103;49.492;8.474;2023-08-08T10:37:51;100495.22;;;20.98;40.44
6144;BME280;3103;49.492;8.474;2023-08-08T10:40:20;100495.59;;;21.05;40.38
6144;BME280;3103;49.492;8.474;2023-08-08T10:42:47;100490.09;;;21.19;40.40
6144;BME280;3103;49.492;8.474;2023-08-08T10:45:16;100491.00;;;21.28;40.10
6144;BME280;3103;49.492;8.474;2023-08-08T10:47:44;100485.06;;;21.26;39.94
6144;BME280;3103;49.492;8.474;2023-08-08T10:50:14;100489.09;;;21.28;40.31
6144;BME280;3103;49.492;8.474;2023-08-08T10:52:55;100486.22;;;21.33;40.96
6144;BME280;3103;49.492;8.474;2023-08-08T10:55:34;100481.63;;;21.43;39.04
6144;BME280;3103;49.492;8.474;2023-08-08T10:58:09;100476.84;;;21.48;39.26
6144;BME280;3103;49.492;8.474;2023-08-08T11:00:38;100482.00;;;21.50;39.29
6144;BME280;3103;49.492;8.474;2023-08-08T11:03:08;100475.97;;;21.39;38.81
6144;BME280;3103;49.492;8.474;2023-08-08T11:05:37;100484.16;;;21.39;39.51
6144;BME280;3103;49.492;8.474;2023-08-08T11:08:06;100479.75;;;21.52;39.13
6144;BME280;3103;49.492;8.474;2023-08-08T11:10:38;100476.28;;;21.60;37.75
6144;BME280;3103;49.492;8.474;2023-08-08T11:13:07;100482.47;;;21.52;38.32
6144;BME280;3103;49.492;8.474;2023-08-08T11:15:35;100482.00;;;21.50;37.04
6144;BME280;3103;49.492;8.474;2023-08-08T11:18:03;100487.16;;;21.51;35.85
6144;BME280;3103;49.492;8.474;2023-08-08T11:20:34;100478.56;;;21.67;36.10
6144;BME280;3103;49.492;8.474;2023-08-08T11:23:02;100485.09;;;21.57;35.52
6144;BME280;3103;49.492;8.474;2023-08-08T11:25:31;100473.63;;;21.69;35.05
6144;BME280;3103;49.492;8.474;2023-08-08T11:27:58;100468.22;;;21.86;34.88
6144;BME280;3103;49.492;8.474;2023-08-08T11:30:30;100482.88;;;21.90;35.09
6144;BME280;3103;49.492;8.474;2023-08-08T11:32:59;100481.81;;;22.00;36.27
6144;BME280;3103;49.492;8.474;2023-08-08T11:35:29;100477.16;;;22.00;36.81
6144;BME280;3103;49.492;8.474;2023-08-08T11:37:58;100479.25;;;22.03;36.04
6144;BME280;3103;49.492;8.474;2023-08-08T11:40:26;100474.38;;;21.91;36.77
6144;BME280;3103;49.492;8.474;2023-08-08T11:42:54;100473.38;;;21.87;36.87
6144;BME280;3103;49.492;8.474;2023-08-08T11:45:23;100475.75;;;21.80;36.21
6144;BME280;3103;49.492;8.474;2023-08-08T11:47:52;100468.94;;;21.69;36.29
6144;BME280;3103;49.492;8.474;2023-08-08T11:50:20;100471.47;;;21.66;36.45
6144;BME280;3103;49.492;8.474;2023-08-08T11:52:51;100472.53;;;21.78;36.19
6144;BME280;3103;49.492;8.474;2023-08-08T11:55:19;100473.22;;;21.84;35.85
6144;BME280;3103;49.492;8.474;2023-08-08T11:57:49;100461.47;;;21.83;35.92
6144;BME280;3103;49.492;8.474;2023-08-08T12:00:16;100456.97;;;21.87;34.73
6144;BME280;3103;49.492;8.474;2023-08-08T12:02:44;100459.72;;;21.87;36.27
6144;BME280;3103;49.492;8.474;2023-08-08T12:05:14;100458.94;;;21.96;34.54
6144;BME280;3103;49.492;8.474;2023-08-08T12:07:44;100453.78;;;21.94;34.33
6144;BME280;3103;49.492;8.474;2023-08-08T12:10:22;100447.69;;;21.97;35.05
6144;BME280;3103;49.492;8.474;2023-08-08T12:12:55;100450.72;;;21.96;35.12
6144;BME280;3103;49.492;8.474;2023-08-08T12:15:23;100452.22;;;22.02;35.58
6144;BME280;3103;49.492;8.474;2023-08-08T12:17:50;100447.63;;;22.11;34.75
6144;BME280;3103;49.492;8.474;2023-08-08T12:20:18;100446.50;;;22.12;34.42
6144;BME280;3103;49.492;8.474;2023-08-08T12:22:45;100441.75;;;22.04;34.33
6144;BME280;3103;49.492;8.474;2023-08-08T12:25:14;100449.97;;;22.04;34.33
6144;BME280;3103;49.492;8.474;2023-08-08T12:27:41;100445.44;;;21.99;34.32
6144;BME280;3103;49.492;8.474;2023-08-08T12:30:08;100450.13;;;21.99;34.63
6144;BME280;3103;49.492;8.474;2023-08-08T12:32:35;100451.34;;;22.15;34.11
6144;BME280;3103;49.492;8.474;2023-08-08T12:35:02;100448.94;;;22.22;34.39
6144;BME280;3103;49.492;8.474;2023-08-08T12:37:30;100438.19;;;22.34;33.62
6144;BME280;3103;49.492;8.474;2023-08-08T12:39:57;100440.97;;;22.43;33.76
6144;BME280;3103;49.492;8.474;2023-08-08T12:42:24;100428.56;;;22.45;33.64
6144;BME280;3103;49.492;8.474;2023-08-08T12:44:53;100431.28;;;22.37;32.59
6144;BME280;3103;49.492;8.474;2023-08-08T12:47:20;100432.22;;;22.32;33.73
6144;BME280;3103;49.492;8.474;2023-08-08T12:49:47;100438.00;;;22.22;33.32
6144;BME280;3103;49.492;8.474;2023-08-08T12:52:14;100450.03;;;22.12;32.66
6144;BME280;3103;49.492;8.474;2023-08-08T12:54:41;100443.78;;;22.12;33.15
6144;BME280;3103;49.492;8.474;2023-08-08T12:57:08;100438.47;;;22.15;32.35
6144;BME280;3103;49.492;8.474;2023-08-08T12:59:35;100443.28;;;22.18;31.49
6144;BME280;3103;49.492;8.474;2023-08-08T13:02:03;100430.41;;;22.19;31.88
6144;BME280;3103;49.492;8.474;2023-08-08T13:04:31;100427.09;;;22.31;32.19
6144;BME280;3103;49.492;8.474;2023-08-08T13:06:58;100428.38;;;22.33;31.87
6144;BME280;3103;49.492;8.474;2023-08-08T13:09:25;100418.91;;;22.48;31.74
6144;BME280;3103;49.492;8.474;2023-08-08T13:11:52;100422.31;;;22.54;31.94
6144;BME280;3103;49.492;8.474;2023-08-08T13:14:19;100435.34;;;22.57;32.05